createdAt,value
2022-11-18T00:03:11.701Z,97205.28
2022-11-18T00:08:16.860Z,97207.91
2022-11-18T00:13:36.783Z,97202.63
2022-11-18T00:18:42.647Z,97205.28
2022-11-18T00:23:47.707Z,97207.50
2022-11-18T00:28:55.210Z,97206.16
2022-11-18T00:34:00.610Z,97199.53
2022-11-18T00:39:07.716Z,97204.31
2022-11-18T00:44:15.401Z,97214.84
2022-11-18T00:49:21.052Z,97222.94
2022-11-18T00:54:26.577Z,97226.44
2022-11-18T00:59:34.241Z,97213.44
2022-11-18T01:04:39.197Z,97211.59
2022-11-18T01:09:44.221Z,97215.13
2022-11-18T01:14:51.971Z,97215.19
2022-11-18T01:19:57.013Z,97211.13
2022-11-18T01:25:01.954Z,97206.34
2022-11-18T01:30:11.427Z,97200.41
2022-11-18T01:35:17.827Z,97194.94
2022-11-18T01:40:24.522Z,97192.38
2022-11-18T01:45:36.717Z,97196.06
2022-11-18T01:50:47.784Z,97184.19
2022-11-18T01:55:57.767Z,97193.53
2022-11-18T02:01:06.478Z,97186.00
2022-11-18T02:06:14.079Z,97186.47
2022-11-18T02:11:31.830Z,97199.06
2022-11-18T02:16:51.125Z,97182.56
2022-11-18T02:22:11.157Z,97179.16
2022-11-18T02:27:43.512Z,97185.88
2022-11-18T02:32:59.378Z,97175.94
2022-11-18T02:38:10.276Z,97173.72
2022-11-18T02:43:21.380Z,97173.00
2022-11-18T02:48:32.951Z,97173.19
2022-11-18T02:53:43.534Z,97178.59
2022-11-18T02:58:48.497Z,97170.44
2022-11-18T03:03:57.125Z,97178.06
2022-11-18T03:09:13.289Z,97182.72
2022-11-18T03:14:26.230Z,97183.53
2022-11-18T03:19:48.875Z,97191.91
2022-11-18T03:25:02.908Z,97189.69
2022-11-18T03:30:12.401Z,97192.69
2022-11-18T03:35:24.918Z,97191.28
2022-11-18T03:40:33.813Z,97184.34
2022-11-18T03:45:44.768Z,97198.97
2022-11-18T03:51:01.118Z,97216.53
2022-11-18T03:56:17.214Z,97221.78
2022-11-18T04:01:28.508Z,97212.81
2022-11-18T04:06:41.478Z,97229.44
2022-11-18T04:12:06.450Z,97223.50
2022-11-18T04:17:13.585Z,97215.91
2022-11-18T04:22:25.143Z,97228.72
2022-11-18T04:27:30.019Z,97233.22
2022-11-18T04:32:35.139Z,97230.47
2022-11-18T04:37:42.825Z,97233.06
2022-11-18T04:42:48.048Z,97233.81
2022-11-18T04:47:52.900Z,97232.41
2022-11-18T04:53:00.678Z,97228.75
2022-11-18T04:58:05.753Z,97234.44
2022-11-18T05:03:10.869Z,97237.09
2022-11-18T05:08:18.492Z,97234.91
2022-11-18T05:13:23.868Z,97240.53
2022-11-18T05:18:30.856Z,97245.16
2022-11-18T05:23:40.180Z,97250.41
2022-11-18T05:28:45.469Z,97257.19
2022-11-18T05:33:50.639Z,97257.13
2022-11-18T05:39:01.080Z,97251.41
2022-11-18T05:44:08.691Z,97257.56
2022-11-18T05:49:13.770Z,97260.28
2022-11-18T05:54:23.621Z,97271.31
2022-11-18T05:59:30.094Z,97275.06
2022-11-18T06:04:40.911Z,97277.00
2022-11-18T06:09:53.088Z,97287.97
2022-11-18T06:15:04.215Z,97301.19
2022-11-18T06:20:13.258Z,97311.69
2022-11-18T06:25:21.275Z,97319.16
2022-11-18T06:30:28.958Z,97328.00
2022-11-18T06:35:33.907Z,97331.91
2022-11-18T06:40:55.393Z,97338.94
2022-11-18T06:46:17.029Z,97349.88
2022-11-18T06:51:22.473Z,97348.28
2022-11-18T06:56:30.171Z,97366.63
2022-11-18T07:01:38.616Z,97369.94
2022-11-18T07:06:49.048Z,97375.22
2022-11-18T07:11:57.002Z,97382.44
2022-11-18T07:17:05.532Z,97377.28
2022-11-18T07:22:10.688Z,97384.38
2022-11-18T07:27:18.523Z,97386.84
2022-11-18T07:32:24.795Z,97393.91
2022-11-18T07:37:30.479Z,97400.31
2022-11-18T07:42:42.901Z,97393.41
2022-11-18T07:48:00.958Z,97393.41
2022-11-18T07:53:06.197Z,97399.53
2022-11-18T07:58:15.813Z,97404.09
2022-11-18T08:03:22.747Z,97409.19
2022-11-18T08:08:27.947Z,97408.69
2022-11-18T08:13:36.241Z,97418.81
2022-11-18T08:18:44.047Z,97416.94
2022-11-18T08:23:54.657Z,97408.69
2022-11-18T08:29:04.646Z,97414.91
2022-11-18T08:34:15.123Z,97410.47
2022-11-18T08:39:20.469Z,97430.47
2022-11-18T08:44:33.827Z,97424.66
2022-11-18T08:49:38.700Z,97443.25
2022-11-18T08:54:43.765Z,97458.41
2022-11-18T08:59:51.242Z,97459.97
2022-11-18T09:04:56.999Z,97465.09
2022-11-18T09:10:04.521Z,97469.03
2022-11-18T09:15:17.480Z,97471.91
2022-11-18T09:20:23.043Z,97487.91
2022-11-18T09:25:28.337Z,97486.84
2022-11-18T09:30:36.603Z,97488.41
2022-11-18T09:35:45.265Z,97494.47
2022-11-18T09:41:02.783Z,97490.81
2022-11-18T09:46:26.910Z,97503.09
2022-11-18T09:51:38.528Z,97510.44
2022-11-18T09:56:48.365Z,97521.97
2022-11-18T10:01:59.526Z,97523.72
2022-11-18T10:07:14.179Z,97539.50
2022-11-18T10:12:28.521Z,97534.22
2022-11-18T10:17:52.148Z,97537.91
2022-11-18T10:23:01.475Z,97539.22
2022-11-18T10:28:22.505Z,97541.09
2022-11-18T10:33:32.715Z,97545.00
2022-11-18T10:38:45.547Z,97545.25
2022-11-18T10:43:55.616Z,97561.75
2022-11-18T10:49:17.420Z,97561.97
2022-11-18T10:54:26.349Z,97573.75
2022-11-18T10:59:34.452Z,97565.66
2022-11-18T11:04:43.529Z,97586.81
2022-11-18T11:10:03.445Z,97585.53
2022-11-18T11:15:14.009Z,97589.47
2022-11-18T11:20:24.581Z,97601.75
2022-11-18T11:31:21.347Z,97623.22
2022-11-18T11:36:43.249Z,97628.94
2022-11-18T11:42:00.017Z,97626.34
2022-11-18T11:47:40.207Z,97633.66
2022-11-18T11:52:59.538Z,97619.56
2022-11-18T11:58:45.053Z,97628.97
2022-11-18T12:03:56.782Z,97627.94
2022-11-18T12:09:13.314Z,97628.94
2022-11-18T12:14:32.926Z,97641.25
2022-11-18T12:19:42.087Z,97642.78
2022-11-18T12:24:51.996Z,97649.88
2022-11-18T12:30:01.607Z,97652.75
2022-11-18T12:35:25.690Z,97655.09
2022-11-18T12:40:47.205Z,97651.38
2022-11-18T12:46:00.628Z,97659.47
2022-11-18T12:51:14.692Z,97675.41
2022-11-18T12:56:27.977Z,97678.28
2022-11-18T13:01:35.504Z,97683.00
2022-11-18T13:06:45.077Z,97693.56
2022-11-18T13:11:57.636Z,97685.78
2022-11-18T13:17:22.819Z,97680.63
2022-11-18T13:22:41.701Z,97690.78
2022-11-18T13:27:55.711Z,97691.75
2022-11-18T13:33:02.577Z,97699.78
2022-11-18T13:38:10.250Z,97720.94
2022-11-18T13:43:28.967Z,97722.88
2022-11-18T13:48:39.022Z,97747.28
2022-11-18T13:53:47.753Z,97756.09
2022-11-18T13:59:18.037Z,97761.16
2022-11-18T14:04:26.362Z,97778.72
2022-11-18T14:09:34.569Z,97779.28
2022-11-18T14:14:45.405Z,97792.75
2022-11-18T14:19:52.736Z,97793.75
2022-11-18T14:25:00.323Z,97795.63
2022-11-18T14:30:32.824Z,97785.44
2022-11-18T14:35:38.181Z,97797.13
2022-11-18T14:40:46.753Z,97791.28
2022-11-18T14:45:59.906Z,97812.00
2022-11-18T14:51:05.152Z,97820.94
2022-11-18T14:56:18.316Z,97817.81
2022-11-18T15:01:30.479Z,97825.88
2022-11-18T15:06:36.433Z,97828.25
2022-11-18T15:11:42.026Z,97838.13
2022-11-18T15:16:52.090Z,97841.97
2022-11-18T15:21:56.989Z,97851.59
2022-11-18T15:27:06.748Z,97849.56
2022-11-18T15:32:16.222Z,97847.69
2022-11-18T15:37:21.276Z,97850.16
2022-11-18T15:42:26.262Z,97857.81
2022-11-18T15:47:33.811Z,97866.06
2022-11-18T15:52:38.997Z,97869.88
2022-11-18T15:57:43.997Z,97877.81
2022-11-18T16:02:54.737Z,97899.34
2022-11-18T16:07:59.790Z,97901.06
2022-11-18T16:13:04.891Z,97919.66
2022-11-18T16:18:13.083Z,97919.28
2022-11-18T16:23:18.074Z,97927.22
2022-11-18T16:28:23.022Z,97932.34
2022-11-18T16:33:30.719Z,97942.78
2022-11-18T16:38:43.607Z,97947.41
2022-11-18T16:43:51.893Z,97953.34
2022-11-18T16:49:00.889Z,97965.88
2022-11-18T16:54:07.867Z,97958.09
2022-11-18T16:59:16.761Z,97966.97
2022-11-18T17:04:25.616Z,97978.72
2022-11-18T17:09:34.064Z,97980.78
2022-11-18T17:14:40.524Z,97994.41
2022-11-18T17:19:51.730Z,97993.13
2022-11-18T17:24:59.729Z,97995.03
2022-11-18T17:30:10.282Z,98000.28
2022-11-18T17:35:21.272Z,98013.63
2022-11-18T17:40:26.269Z,98012.06
2022-11-18T17:45:31.427Z,98016.78
2022-11-18T17:50:39.031Z,98036.31
2022-11-18T17:55:44.273Z,98042.09
2022-11-18T18:00:49.192Z,98038.19
2022-11-18T18:06:04.216Z,98061.25
2022-11-18T18:11:15.174Z,98039.13
2022-11-18T18:16:20.632Z,98057.38
2022-11-18T18:21:28.686Z,98068.38
2022-11-18T18:26:34.446Z,98063.69
2022-11-18T18:31:39.779Z,98061.09
2022-11-18T18:36:49.701Z,98063.56
2022-11-18T18:41:54.779Z,98083.19
2022-11-18T18:46:59.803Z,98086.41
2022-11-18T18:52:10.081Z,98085.47
2022-11-18T18:57:17.953Z,98099.00
2022-11-18T19:02:22.961Z,98096.88
2022-11-18T19:07:31.511Z,98101.28
2022-11-18T19:12:51.737Z,98111.66
2022-11-18T19:17:56.826Z,98096.72
2022-11-18T19:23:10.119Z,98097.66
2022-11-18T19:28:15.790Z,98117.59
2022-11-18T19:33:20.837Z,98108.59
2022-11-18T19:38:28.563Z,98120.13
2022-11-18T19:43:34.421Z,98126.44
2022-11-18T19:48:39.423Z,98126.44
2022-11-18T19:53:46.948Z,98130.78
2022-11-18T19:58:54.870Z,98135.38
2022-11-18T20:04:01.907Z,98131.84
2022-11-18T20:09:16.731Z,98138.38
2022-11-18T20:14:25.539Z,98130.69
2022-11-18T20:19:30.955Z,98140.84
2022-11-18T20:24:38.766Z,98153.00
2022-11-18T20:29:46.214Z,98158.22
2022-11-18T20:34:51.451Z,98162.09
2022-11-18T20:39:59.167Z,98158.53
2022-11-18T20:45:04.430Z,98171.19
2022-11-18T20:50:10.835Z,98174.34
2022-11-18T20:55:18.657Z,98179.41
2022-11-18T21:00:23.762Z,98179.25
2022-11-18T21:05:31.144Z,98188.75
2022-11-18T21:10:39.527Z,98183.19
2022-11-18T21:15:48.162Z,98177.69
2022-11-18T21:21:05.680Z,98186.59
2022-11-18T21:26:15.681Z,98180.91
2022-11-18T21:31:23.180Z,98178.38
2022-11-18T21:36:30.561Z,98191.75
2022-11-18T21:41:38.728Z,98203.44
2022-11-18T21:46:47.411Z,98211.13
2022-11-18T21:51:52.273Z,98211.09
2022-11-18T21:56:59.823Z,98221.66
2022-11-18T22:02:04.962Z,98227.53
2022-11-18T22:07:10.068Z,98229.69
2022-11-18T22:12:17.764Z,98230.19
2022-11-18T22:17:22.725Z,98217.66
2022-11-18T22:22:27.665Z,98231.03
2022-11-18T22:27:36.291Z,98235.41
2022-11-18T22:32:43.536Z,98243.94
2022-11-18T22:37:48.397Z,98240.41
2022-11-18T22:42:57.380Z,98245.44
2022-11-18T22:48:03.371Z,98251.75
2022-11-18T22:53:08.251Z,98264.16
2022-11-18T22:58:15.878Z,98271.50
2022-11-18T23:03:20.884Z,98269.09
2022-11-18T23:08:27.106Z,98275.69
2022-11-18T23:13:47.531Z,98279.91
2022-11-18T23:18:53.032Z,98279.16
2022-11-18T23:23:57.983Z,98294.56
2022-11-18T23:29:05.595Z,98287.56
2022-11-18T23:34:10.830Z,98293.34
2022-11-18T23:39:16.121Z,98305.13
2022-11-18T23:44:44.301Z,98318.28
2022-11-18T23:49:49.701Z,98317.34
2022-11-18T23:54:54.853Z,98318.63
